Detalii statie AGRONOVA [00001CEC]

Toti senzorii

Date Temperatura solului [C]Precipitatii [mm]Voltaj baterie [mV]Leaf Wetness [Min]HC Air temperature [C]HC Relative humidity [%]Punctul de roua [C]
medieminmaxsumaultimatimpmedieminmaxmediemediemin
2018-12-09 15:00:00 4.3 4.1 4.5 0 7030 10.06 9.93 10.2 0 0 0
2018-12-09 16:00:00 4.4 4.3 4.5 0 6972 9.34 8.45 9.93 0 0 0
2018-12-09 17:00:00 4.3 4.1 4.5 0 6748 6.22 4.64 8.24 0 0 0
2018-12-09 18:00:00 4 3.9 4.3 0 6698 3.97 2.66 4.95 0 0 0
2018-12-09 19:00:00 3.7 3.7 4 0 6688 2.78 2.28 3.67 0 0 0
2018-12-09 20:00:00 3.5 3.4 3.7 0 6668 2.23 0.94 3.01 0 0 0
2018-12-09 21:00:00 3.2 3.1 3.5 0 6660 1.03 -0.38 1.77 0 0 0
2018-12-09 22:00:00 3 2.9 3.2 0 6660 0 -0.9 0.69 0 0 0
2018-12-09 23:00:00 2.8 2.7 2.9 0 6650 -0.99 -2.26 -0.06 0 0 0
2018-12-10 00:00:00 2.6 2.6 2.8 0 6640 0.07 -0.36 0.56 0 0 0
2018-12-10 01:00:00 2.5 2.3 2.7 0 6640 -1.01 -1.4 -0.04 0 0 0
2018-12-10 02:00:00 2.4 2.3 2.5 0 6630 -1.56 -1.81 -1.32 0 0 0
2018-12-10 03:00:00 2.3 2.2 2.4 0 6630 -1.43 -1.64 -1.3 0 0 0
2018-12-10 04:00:00 2.2 2.1 2.4 0 6620 -1.47 -1.64 -1.42 0 0 0
2018-12-10 05:00:00 2.2 2.1 2.3 0 6620 -1.81 -1.92 -1.71 0 0 0
2018-12-10 06:00:00 2.1 2 2.3 0 6620 -2.13 -2.5 -1.89 0 0 0
2018-12-10 07:00:00 2.1 2.1 2.2 0 6620 -2.55 -2.63 -2.41 0 0 0
2018-12-10 08:00:00 2.1 2 2.2 0 6610 -2.47 -2.59 -2.39 0 0 0
2018-12-10 09:00:00 2.1 2 2.2 0 6610 -1.86 -2.34 -1.36 0 0 0
2018-12-10 10:00:00 2 2 2.1 0 6650 -0.97 -1.27 -0.6 0 0 0
2018-12-10 11:00:00 2.1 2.1 2.2 0 6826 0.23 -0.56 2.05 0 0 0
2018-12-10 12:00:00 2.2 2 2.5 0 6756 3.09 2.52 3.75 0 0 0
2018-12-10 13:00:00 2.5 2.4 2.8 0 6796 4.7 3.95 5.26 0 0 0
2018-12-10 14:00:00 2.9 2.8 3.2 0 6864 6.5 5.52 7.37 0 0 0
2018-12-10 15:00:00 3.3 3.1 3.5 0 6796 7.62 7.52 7.72 0 0 0
2018-12-10 16:00:00 3.6 3.4 3.9 0 6708 7.55 7.3 7.73 0 0 0
2018-12-10 17:00:00 3.7 3.6 3.8 0 6668 6.92 6.8 7.19 0 0 0
2018-12-10 18:00:00 3.7 3.7 3.8 0 6650 6.77 6.51 7.16 0 0 0
2018-12-10 19:00:00 3.6 3.5 3.8 0 6650 6.41 5.67 6.71 0 0 0
2018-12-10 20:00:00 3.6 3.5 3.7 0 6630 5.47 5.15 5.78 0 0 0
2018-12-10 21:00:00 3.5 3.4 3.6 0 6620 5.02 4.81 5.32 0 0 0
2018-12-10 22:00:00 3.4 3.3 3.5 0 6620 5.11 4.83 5.42 0 0 0
2018-12-10 23:00:00 3.4 3.3 3.5 0 6610 5.12 4.72 5.41 0 0 0
2018-12-11 00:00:00 3.3 3.2 3.4 0 6610 4.82 4.67 5.06 0 0 0
2018-12-11 01:00:00 3.3 3.2 3.5 0 6600 5.1 4.85 5.37 0 0 0
2018-12-11 02:00:00 3.3 3.1 3.5 0 6600 4.6 4.29 4.89 0 0 0
2018-12-11 03:00:00 3.2 3.2 3.4 0 6600 4.37 4.26 4.47 0 0 0
2018-12-11 04:00:00 3.2 3.1 3.3 0 6600 4.2 4.01 4.37 0 0 0
2018-12-11 05:00:00 3.2 3.2 3.3 0 6590 3.99 3.78 4.14 0 0 0